createdAt,value
2018-11-02T00:01:26.173Z,91.67
2018-11-02T00:03:56.021Z,91.94
2018-11-02T00:06:25.747Z,91.70
2018-11-02T00:08:55.508Z,92.20
2018-11-02T00:11:25.691Z,91.28
2018-11-02T00:13:55.088Z,91.39
2018-11-02T00:16:24.477Z,91.79
2018-11-02T00:18:53.902Z,91.43
2018-11-02T00:21:23.410Z,91.44
2018-11-02T00:23:52.942Z,91.00
2018-11-02T00:26:22.372Z,91.03
2018-11-02T00:28:51.766Z,91.33
2018-11-02T00:31:21.194Z,91.54
2018-11-02T00:33:50.597Z,91.37
2018-11-02T00:36:20.085Z,91.31
2018-11-02T00:38:49.508Z,91.65
2018-11-02T00:41:19.075Z,91.51
2018-11-02T00:43:48.530Z,91.40
2018-11-02T00:46:18.006Z,91.81
2018-11-02T00:48:47.412Z,91.73
2018-11-02T00:51:16.816Z,92.12
2018-11-02T00:53:46.252Z,91.81
2018-11-02T00:56:15.696Z,92.04
2018-11-02T00:58:45.304Z,91.72
2018-11-02T01:01:14.706Z,92.29
2018-11-02T01:03:44.114Z,91.85
2018-11-02T01:06:13.540Z,92.07
2018-11-02T01:08:42.954Z,92.14
2018-11-02T01:11:12.381Z,91.97
2018-11-02T01:13:41.839Z,92.32
2018-11-02T01:16:11.238Z,91.85
2018-11-02T01:18:40.920Z,91.97
2018-11-02T01:21:10.299Z,91.38
2018-11-02T01:23:39.744Z,91.15
2018-11-02T01:26:09.183Z,91.22
2018-11-02T01:28:38.633Z,91.19
2018-11-02T01:31:08.016Z,91.79
2018-11-02T01:33:38.065Z,91.13
2018-11-02T01:36:09.230Z,91.38
2018-11-02T01:38:38.825Z,91.23
2018-11-02T01:41:08.222Z,91.48
2018-11-02T01:43:37.623Z,91.50
2018-11-02T01:46:07.169Z,91.02
2018-11-02T01:48:36.597Z,91.59
2018-11-02T01:51:06.086Z,90.95
2018-11-02T01:53:35.549Z,91.09
2018-11-02T01:56:05.158Z,90.78
2018-11-02T01:58:34.589Z,91.25
2018-11-02T02:01:03.988Z,91.57
2018-11-02T02:03:33.404Z,91.54
2018-11-02T02:06:02.817Z,91.69
2018-11-02T02:08:32.220Z,91.74
2018-11-02T02:11:01.651Z,92.13
2018-11-02T02:13:31.092Z,92.05
2018-11-02T02:16:00.859Z,92.23
2018-11-02T02:18:30.365Z,92.03
2018-11-02T02:20:59.900Z,91.83
2018-11-02T02:23:29.425Z,92.26
2018-11-02T02:25:58.917Z,91.75
2018-11-02T02:28:28.538Z,92.05
2018-11-02T02:30:57.980Z,91.70
2018-11-02T02:33:27.522Z,91.52
2018-11-02T02:35:56.985Z,91.15
2018-11-02T02:38:26.454Z,91.72
2018-11-02T02:40:55.882Z,91.63
2018-11-02T02:43:25.362Z,91.31
2018-11-02T02:45:54.827Z,90.83
2018-11-02T02:48:24.249Z,91.11
2018-11-02T02:50:53.759Z,90.99
2018-11-02T02:53:23.206Z,90.81
2018-11-02T02:55:52.654Z,90.99
2018-11-02T02:58:22.118Z,90.77
2018-11-02T03:00:51.645Z,90.99
2018-11-02T03:03:21.155Z,90.87
2018-11-02T03:05:50.689Z,91.46
2018-11-02T03:08:20.150Z,91.44
2018-11-02T03:10:49.761Z,91.24
2018-11-02T03:13:19.017Z,90.74
2018-11-02T03:15:48.458Z,91.26
2018-11-02T03:18:17.912Z,90.88
2018-11-02T03:20:47.376Z,90.64
2018-11-02T03:23:16.902Z,91.13
2018-11-02T03:25:46.423Z,90.29
2018-11-02T03:28:15.880Z,90.71
2018-11-02T03:30:45.516Z,90.66
2018-11-02T03:33:14.949Z,90.64
2018-11-02T03:35:44.381Z,90.53
2018-11-02T03:38:13.829Z,90.24
2018-11-02T03:40:43.253Z,90.41
2018-11-02T03:43:12.704Z,90.80
2018-11-02T03:45:42.176Z,90.30
2018-11-02T03:48:11.645Z,90.71
2018-11-02T03:50:41.079Z,90.75
2018-11-02T03:53:10.691Z,90.60
2018-11-02T03:55:40.217Z,90.71
2018-11-02T03:58:09.633Z,91.10
2018-11-02T04:00:41.057Z,90.75
2018-11-02T04:03:10.518Z,91.04
2018-11-02T04:05:39.916Z,91.50
2018-11-02T04:08:09.373Z,91.24
2018-11-02T04:10:38.793Z,91.18
2018-11-02T04:13:08.254Z,91.08
2018-11-02T04:15:37.708Z,91.20
2018-11-02T04:18:07.669Z,91.33
2018-11-02T04:20:37.177Z,91.47
2018-11-02T04:23:06.642Z,91.12
2018-11-02T04:25:36.065Z,91.16
2018-11-02T04:28:05.877Z,90.69
2018-11-02T04:30:35.351Z,90.51
2018-11-02T04:33:04.915Z,90.69
2018-11-02T04:35:34.343Z,90.72
2018-11-02T04:38:03.770Z,90.93
2018-11-02T04:40:33.217Z,90.60
2018-11-02T04:43:02.898Z,90.65
2018-11-02T04:45:37.470Z,90.87
2018-11-02T04:48:08.646Z,90.85
2018-11-02T04:50:38.234Z,90.58
2018-11-02T04:53:07.713Z,90.67
2018-11-02T04:55:37.174Z,90.85
2018-11-02T04:58:06.613Z,90.76
2018-11-02T05:00:36.121Z,91.04
2018-11-02T05:03:06.497Z,90.79
2018-11-02T05:05:35.950Z,91.25
2018-11-02T05:08:05.426Z,90.96
2018-11-02T05:10:34.881Z,90.41
2018-11-02T05:13:04.337Z,91.27
2018-11-02T05:15:33.836Z,91.33
2018-11-02T05:18:03.278Z,92.12
2018-11-02T05:20:32.744Z,91.75
2018-11-02T05:23:02.161Z,91.94
2018-11-02T05:25:31.601Z,92.48
2018-11-02T05:28:01.074Z,92.67
2018-11-02T05:30:30.601Z,92.43
2018-11-02T05:33:00.041Z,92.77
2018-11-02T05:35:29.477Z,92.70
2018-11-02T05:37:58.906Z,92.78
2018-11-02T05:40:28.361Z,93.06
2018-11-02T05:42:57.839Z,93.20
2018-11-02T05:45:27.277Z,93.32
2018-11-02T05:47:56.697Z,92.97
2018-11-02T05:50:26.327Z,93.21
2018-11-02T05:52:55.772Z,93.28
2018-11-02T05:55:25.234Z,92.90
2018-11-02T05:57:54.669Z,93.09
2018-11-02T06:00:24.101Z,92.38
2018-11-02T06:02:53.517Z,92.68
2018-11-02T06:05:22.956Z,92.71
2018-11-02T06:07:52.441Z,92.83
2018-11-02T06:10:21.988Z,92.74
2018-11-02T06:12:51.449Z,93.01
2018-11-02T06:15:20.869Z,92.28
2018-11-02T06:17:50.378Z,92.36
2018-11-02T06:20:19.872Z,92.19
2018-11-02T06:22:49.395Z,92.89
2018-11-02T06:25:18.810Z,92.71
2018-11-02T06:27:48.321Z,92.48
2018-11-02T06:30:17.780Z,92.59
2018-11-02T06:32:47.278Z,92.22
2018-11-02T06:35:16.679Z,92.62
2018-11-02T06:37:46.153Z,92.71
2018-11-02T06:40:15.575Z,92.26
2018-11-02T06:42:45.046Z,91.93
2018-11-02T06:45:14.565Z,91.76
2018-11-02T06:47:44.132Z,91.87
2018-11-02T06:50:13.553Z,91.33
2018-11-02T06:52:43.070Z,90.64
2018-11-02T06:55:12.498Z,89.07
2018-11-02T06:57:41.978Z,86.06
2018-11-02T07:00:13.770Z,83.38
2018-11-02T07:02:43.214Z,80.22
2018-11-02T07:05:12.715Z,78.40
2018-11-02T07:07:42.411Z,77.15
2018-11-02T07:10:11.628Z,74.72
2018-11-02T07:12:41.125Z,73.06
2018-11-02T07:15:10.591Z,71.21
2018-11-02T07:17:40.101Z,69.25
2018-11-02T07:20:09.589Z,67.28
2018-11-02T07:22:39.074Z,65.78
2018-11-02T07:25:08.985Z,64.75
2018-11-02T07:27:38.450Z,64.44
2018-11-02T07:30:09.553Z,63.89
2018-11-02T07:32:39.458Z,63.84
2018-11-02T07:35:09.706Z,62.29
2018-11-02T07:37:39.481Z,62.22
2018-11-02T07:40:10.750Z,62.00
2018-11-02T07:42:40.465Z,61.33
2018-11-02T07:45:10.482Z,59.77
2018-11-02T07:47:40.054Z,58.11
2018-11-02T07:50:11.590Z,56.95
2018-11-02T07:52:41.202Z,55.75
2018-11-02T07:55:12.880Z,53.93
2018-11-02T07:57:42.362Z,54.14
2018-11-02T08:00:14.637Z,53.17
2018-11-02T08:02:46.010Z,53.09
2018-11-02T08:05:16.248Z,53.40
2018-11-02T08:07:45.835Z,53.58
2018-11-02T08:10:15.385Z,53.35
2018-11-02T08:12:44.867Z,51.72
2018-11-02T08:15:14.323Z,51.35
2018-11-02T08:17:43.942Z,51.08
2018-11-02T08:20:13.901Z,50.19
2018-11-02T08:22:43.892Z,49.65
2018-11-02T08:25:13.637Z,48.98
2018-11-02T08:27:43.143Z,47.69
2018-11-02T08:30:12.839Z,47.31
2018-11-02T08:32:42.344Z,46.73
2018-11-02T08:35:13.300Z,46.23
2018-11-02T08:37:43.005Z,46.47
2018-11-02T08:40:13.475Z,45.76
2018-11-02T08:42:43.350Z,46.32
2018-11-02T08:45:12.789Z,47.79
2018-11-02T08:47:42.288Z,49.43
2018-11-02T08:50:12.352Z,51.33
2018-11-02T08:52:42.397Z,52.11
2018-11-02T08:55:11.836Z,52.66
2018-11-02T08:57:41.307Z,52.62
2018-11-02T09:00:12.782Z,53.38
2018-11-02T09:02:42.482Z,53.09
2018-11-02T09:05:12.063Z,52.72
2018-11-02T09:07:41.380Z,52.08
2018-11-02T09:10:12.197Z,51.51
2018-11-02T09:12:41.861Z,51.71
2018-11-02T09:15:11.381Z,51.37
2018-11-02T09:17:40.813Z,51.03
2018-11-02T09:20:10.282Z,50.00
2018-11-02T09:22:39.826Z,50.44
2018-11-02T09:25:10.344Z,50.68
2018-11-02T09:27:39.885Z,50.48
2018-11-02T09:30:13.788Z,51.25
2018-11-02T09:32:43.578Z,52.77
2018-11-02T09:35:13.505Z,54.09
2018-11-02T09:37:43.405Z,53.86
2018-11-02T09:40:13.163Z,55.05
2018-11-02T09:42:42.670Z,55.30
2018-11-02T09:45:14.275Z,55.78
2018-11-02T09:47:44.293Z,57.35
2018-11-02T09:50:14.019Z,57.19
2018-11-02T09:52:43.477Z,57.25
2018-11-02T09:55:14.561Z,57.18
2018-11-02T09:57:44.982Z,57.45
2018-11-02T10:00:14.913Z,57.56
2018-11-02T10:02:44.458Z,57.80
2018-11-02T10:05:14.068Z,57.61
2018-11-02T10:07:43.509Z,57.00
2018-11-02T10:10:13.647Z,56.67
2018-11-02T10:12:43.195Z,57.14
2018-11-02T10:15:14.348Z,55.95
2018-11-02T10:17:43.839Z,56.36
2018-11-02T10:20:13.505Z,55.98
2018-11-02T10:22:42.961Z,55.29
2018-11-02T10:25:12.463Z,55.17
2018-11-02T10:27:44.055Z,54.45
2018-11-02T10:30:14.687Z,54.46
2018-11-02T10:32:47.090Z,54.73
2018-11-02T10:35:16.621Z,54.67
2018-11-02T10:37:46.359Z,55.55
2018-11-02T10:40:17.338Z,56.03
2018-11-02T10:42:54.647Z,56.79
2018-11-02T10:45:27.893Z,57.18
2018-11-02T10:47:57.301Z,56.62
2018-11-02T10:50:26.936Z,57.41
2018-11-02T10:52:56.519Z,57.20
2018-11-02T10:55:25.980Z,58.04
2018-11-02T10:57:55.558Z,57.74
2018-11-02T11:00:30.178Z,58.23
2018-11-02T11:02:59.646Z,58.30
2018-11-02T11:05:30.981Z,58.02
2018-11-02T11:08:00.421Z,58.34
2018-11-02T11:10:29.901Z,58.50
2018-11-02T11:12:59.647Z,58.68
2018-11-02T11:15:28.840Z,59.24
2018-11-02T11:17:58.262Z,59.52
2018-11-02T11:20:27.763Z,59.79
2018-11-02T11:22:57.318Z,60.46
2018-11-02T11:25:26.768Z,60.04
2018-11-02T11:27:56.227Z,59.76
2018-11-02T11:30:25.679Z,59.94
2018-11-02T11:32:55.219Z,59.83
2018-11-02T11:35:24.725Z,60.59
2018-11-02T11:37:54.458Z,59.52
2018-11-02T11:40:23.881Z,59.77
2018-11-02T11:42:53.316Z,60.01
2018-11-02T11:45:22.768Z,59.55
2018-11-02T11:47:52.330Z,60.08
2018-11-02T11:50:23.744Z,60.16
2018-11-02T11:52:54.251Z,60.04
2018-11-02T11:55:23.840Z,60.10
2018-11-02T11:57:53.298Z,60.04
2018-11-02T12:00:23.706Z,60.06
2018-11-02T12:02:53.593Z,60.74
2018-11-02T12:05:24.051Z,60.87
2018-11-02T12:07:53.513Z,61.39
2018-11-02T12:10:24.869Z,60.66
2018-11-02T12:12:54.492Z,60.96
2018-11-02T12:15:24.350Z,61.13
2018-11-02T12:17:53.865Z,61.15
2018-11-02T12:20:29.177Z,61.09
2018-11-02T12:23:03.470Z,60.62
2018-11-02T12:25:32.974Z,60.81
2018-11-02T12:28:02.548Z,60.75
2018-11-02T12:30:31.944Z,60.54
2018-11-02T12:33:01.489Z,61.13
2018-11-02T12:35:30.976Z,61.04
2018-11-02T12:38:00.523Z,60.60
2018-11-02T12:40:30.011Z,60.91
2018-11-02T12:42:59.496Z,61.50
2018-11-02T12:45:29.026Z,61.37
2018-11-02T12:47:58.587Z,60.96
2018-11-02T12:50:28.921Z,61.03
2018-11-02T12:52:59.509Z,61.66
2018-11-02T12:55:29.105Z,60.78
2018-11-02T12:57:58.541Z,61.17
2018-11-02T13:00:28.795Z,60.36
2018-11-02T13:02:58.456Z,60.95
2018-11-02T13:05:28.014Z,59.95
2018-11-02T13:07:57.530Z,60.01
2018-11-02T13:10:26.963Z,59.80
2018-11-02T13:12:56.437Z,58.95
2018-11-02T13:15:26.077Z,58.95
2018-11-02T13:17:55.570Z,59.39
2018-11-02T13:20:25.153Z,59.76
2018-11-02T13:22:54.599Z,59.95
2018-11-02T13:25:24.486Z,59.34
2018-11-02T13:27:54.003Z,59.50
2018-11-02T13:30:23.610Z,59.91
2018-11-02T13:32:52.977Z,59.94
2018-11-02T13:35:22.406Z,60.49
2018-11-02T13:37:52.148Z,60.32
2018-11-02T13:40:21.589Z,60.19
2018-11-02T13:42:51.162Z,60.05
2018-11-02T13:45:20.694Z,60.21
2018-11-02T13:47:50.286Z,60.32
2018-11-02T13:50:20.046Z,60.20
2018-11-02T13:52:49.664Z,59.92
2018-11-02T13:55:19.145Z,60.16
2018-11-02T13:57:48.596Z,60.05
2018-11-02T14:00:18.866Z,59.38
2018-11-02T14:02:48.289Z,59.27
2018-11-02T14:05:18.229Z,59.60
2018-11-02T14:07:47.697Z,60.02
2018-11-02T14:10:17.150Z,60.42
2018-11-02T14:12:46.745Z,61.02
2018-11-02T14:15:17.028Z,61.33
2018-11-02T14:17:46.541Z,62.70
2018-11-02T14:20:16.297Z,63.16
2018-11-02T14:22:45.759Z,62.95
2018-11-02T14:25:16.525Z,64.00
2018-11-02T14:27:46.356Z,64.49
2018-11-02T14:30:17.085Z,64.21
2018-11-02T14:32:47.370Z,65.21
2018-11-02T14:35:16.823Z,64.95
2018-11-02T14:37:46.280Z,65.27
2018-11-02T14:40:15.778Z,65.88
2018-11-02T14:42:45.230Z,65.96
2018-11-02T14:45:15.818Z,66.09
2018-11-02T14:47:46.205Z,66.46
2018-11-02T14:50:15.653Z,66.27
2018-11-02T14:52:45.114Z,66.32
2018-11-02T14:55:14.589Z,66.08
2018-11-02T14:57:44.037Z,66.42
2018-11-02T15:00:13.521Z,66.64
2018-11-02T15:02:43.328Z,66.58
2018-11-02T15:05:13.661Z,67.03
2018-11-02T15:07:43.658Z,67.01
2018-11-02T15:10:13.156Z,67.18
2018-11-02T15:12:42.593Z,66.91
2018-11-02T15:15:12.070Z,67.54
2018-11-02T15:17:41.497Z,67.38
2018-11-02T15:20:13.957Z,67.93
2018-11-02T15:22:43.434Z,68.51
2018-11-02T15:25:12.924Z,68.85
2018-11-02T15:27:42.352Z,68.43
2018-11-02T15:30:13.722Z,69.07
2018-11-02T15:32:44.535Z,69.24
2018-11-02T15:35:14.097Z,69.31
2018-11-02T15:37:43.841Z,70.14
2018-11-02T15:40:14.196Z,70.46
2018-11-02T15:42:44.103Z,70.68
2018-11-02T15:45:15.254Z,70.69
2018-11-02T15:47:45.449Z,70.49
2018-11-02T15:50:14.909Z,71.09
2018-11-02T15:52:44.369Z,71.79
2018-11-02T15:55:13.865Z,71.66
2018-11-02T15:57:43.321Z,71.93
2018-11-02T16:00:20.412Z,72.02
2018-11-02T16:02:51.031Z,72.49
2018-11-02T16:05:20.841Z,72.43
2018-11-02T16:07:50.510Z,73.01
2018-11-02T16:10:20.111Z,73.07
2018-11-02T16:12:49.572Z,73.39
2018-11-02T16:15:25.657Z,73.53
2018-11-02T16:17:55.091Z,74.17
2018-11-02T16:20:24.602Z,74.48
2018-11-02T16:22:54.046Z,74.54
2018-11-02T16:25:23.509Z,74.85
2018-11-02T16:27:52.982Z,74.79
2018-11-02T16:30:22.435Z,74.90
2018-11-02T16:32:51.882Z,75.61
2018-11-02T16:35:21.315Z,75.31
2018-11-02T16:37:50.815Z,75.35
2018-11-02T16:40:20.281Z,75.51
2018-11-02T16:42:49.725Z,75.51
2018-11-02T16:45:19.137Z,76.10
2018-11-02T16:47:48.645Z,76.00
2018-11-02T16:50:18.126Z,76.47
2018-11-02T16:52:47.542Z,76.58
2018-11-02T16:55:17.003Z,76.68
2018-11-02T16:57:46.778Z,76.77
2018-11-02T17:00:18.578Z,76.93
2018-11-02T17:02:49.091Z,77.63
2018-11-02T17:05:18.961Z,77.87
2018-11-02T17:07:48.465Z,77.96
2018-11-02T17:10:18.026Z,77.76
2018-11-02T17:12:47.583Z,78.40
2018-11-02T17:15:17.085Z,78.35
2018-11-02T17:17:46.533Z,78.30
2018-11-02T17:20:17.430Z,78.62
2018-11-02T17:22:47.285Z,79.03
2018-11-02T17:25:16.752Z,79.44
2018-11-02T17:27:46.201Z,79.30
2018-11-02T17:30:17.103Z,79.36
2018-11-02T17:32:46.585Z,79.67
2018-11-02T17:35:16.284Z,79.85
2018-11-02T17:37:45.729Z,80.05
2018-11-02T17:40:15.795Z,80.24
2018-11-02T17:42:45.667Z,80.23
2018-11-02T17:45:15.263Z,80.35
2018-11-02T17:47:44.814Z,80.57
2018-11-02T17:50:15.516Z,80.39
2018-11-02T17:52:45.125Z,80.06
2018-11-02T17:55:14.576Z,80.07
2018-11-02T17:57:44.042Z,79.98
2018-11-02T18:00:14.637Z,79.06
2018-11-02T18:02:44.245Z,79.53
2018-11-02T18:05:13.816Z,79.14
2018-11-02T18:07:43.989Z,79.29
2018-11-02T18:10:14.406Z,79.53
2018-11-02T18:12:43.853Z,79.12
2018-11-02T18:15:13.901Z,79.24
2018-11-02T18:17:43.358Z,79.74
2018-11-02T18:20:15.307Z,78.73
2018-11-02T18:22:44.835Z,78.64
2018-11-02T18:25:14.386Z,78.54
2018-11-02T18:27:44.025Z,78.43
2018-11-02T18:30:13.986Z,78.36
2018-11-02T18:32:43.523Z,78.40
2018-11-02T18:35:13.022Z,78.89
2018-11-02T18:37:42.512Z,78.40
2018-11-02T18:40:13.489Z,78.07
2018-11-02T18:42:43.429Z,78.54
2018-11-02T18:45:15.060Z,78.33
2018-11-02T18:47:46.744Z,78.32
2018-11-02T18:50:20.478Z,78.09
2018-11-02T18:52:50.519Z,78.63
2018-11-02T18:55:20.596Z,78.35
2018-11-02T18:57:50.297Z,78.55
2018-11-02T19:00:26.322Z,79.19
2018-11-02T19:02:55.815Z,78.83
2018-11-02T19:05:25.345Z,79.20
2018-11-02T19:07:54.784Z,79.41
2018-11-02T19:10:24.270Z,79.67
2018-11-02T19:12:53.842Z,80.27
2018-11-02T19:15:23.417Z,80.25
2018-11-02T19:17:52.868Z,80.37
2018-11-02T19:20:22.728Z,80.71
2018-11-02T19:22:52.476Z,80.40
2018-11-02T19:25:21.969Z,81.05
2018-11-02T19:27:51.598Z,80.89
2018-11-02T19:30:21.188Z,80.93
2018-11-02T19:32:50.827Z,80.78
2018-11-02T19:35:20.420Z,81.41
2018-11-02T19:37:49.726Z,80.81
2018-11-02T19:40:19.170Z,80.91
2018-11-02T19:42:48.716Z,80.78
2018-11-02T19:45:18.253Z,80.32
2018-11-02T19:47:54.907Z,80.56
2018-11-02T19:50:24.650Z,80.41
2018-11-02T19:52:54.085Z,81.13
2018-11-02T19:55:23.623Z,80.28
2018-11-02T19:57:53.002Z,79.90
2018-11-02T20:00:22.500Z,80.42
2018-11-02T20:02:51.947Z,80.13
2018-11-02T20:05:21.889Z,79.73
2018-11-02T20:07:51.324Z,79.95
2018-11-02T20:10:20.767Z,80.29
2018-11-02T20:12:50.358Z,80.17
2018-11-02T20:15:19.796Z,80.42
2018-11-02T20:17:49.423Z,80.24
2018-11-02T20:20:19.077Z,79.92
2018-11-02T20:22:48.551Z,80.15
2018-11-02T20:25:18.734Z,79.54
2018-11-02T20:27:48.310Z,79.71
2018-11-02T20:30:19.285Z,79.78
2018-11-02T20:32:48.905Z,79.55
2018-11-02T20:35:18.446Z,79.77
2018-11-02T20:37:47.972Z,79.04
2018-11-02T20:40:19.115Z,78.99
2018-11-02T20:42:48.715Z,79.30
2018-11-02T20:45:18.272Z,78.93
2018-11-02T20:47:52.045Z,78.96
2018-11-02T20:50:21.623Z,79.33
2018-11-02T20:52:51.686Z,79.08
2018-11-02T20:55:21.307Z,79.30
2018-11-02T20:57:50.745Z,79.60
2018-11-02T21:00:21.625Z,79.99
2018-11-02T21:02:51.198Z,79.45
2018-11-02T21:05:21.162Z,79.85
2018-11-02T21:07:51.272Z,79.67
2018-11-02T21:10:21.814Z,79.30
2018-11-02T21:12:51.493Z,79.58
2018-11-02T21:15:23.174Z,79.80
2018-11-02T21:17:53.065Z,79.51
2018-11-02T21:20:23.791Z,79.42
2018-11-02T21:22:53.197Z,78.84
2018-11-02T21:25:22.720Z,79.50
2018-11-02T21:27:52.326Z,79.26
2018-11-02T21:30:23.183Z,79.44
2018-11-02T21:32:53.505Z,79.78
2018-11-02T21:35:23.616Z,79.77
2018-11-02T21:37:53.182Z,79.59
2018-11-02T21:40:23.836Z,79.99
2018-11-02T21:42:53.344Z,80.18
2018-11-02T21:45:23.789Z,79.99
2018-11-02T21:47:53.350Z,80.21
2018-11-02T21:50:22.794Z,80.81
2018-11-02T21:52:52.218Z,80.27
2018-11-02T21:55:21.843Z,80.36
2018-11-02T21:57:51.249Z,80.47
2018-11-02T22:00:22.075Z,80.51
2018-11-02T22:02:51.678Z,80.39
2018-11-02T22:05:21.102Z,80.98
2018-11-02T22:07:51.097Z,80.31
2018-11-02T22:10:20.621Z,80.67
2018-11-02T22:12:50.155Z,80.48
2018-11-02T22:15:19.633Z,80.66
2018-11-02T22:17:49.143Z,80.97
2018-11-02T22:20:18.621Z,81.26
2018-11-02T22:22:48.195Z,81.37
2018-11-02T22:25:17.637Z,81.67
2018-11-02T22:27:47.220Z,81.01
2018-11-02T22:30:17.775Z,81.44
2018-11-02T22:32:47.237Z,81.11
2018-11-02T22:35:17.641Z,81.22
2018-11-02T22:37:47.446Z,80.76
2018-11-02T22:40:16.993Z,80.93
2018-11-02T22:42:46.575Z,80.64
2018-11-02T22:45:16.547Z,80.61
2018-11-02T22:47:51.282Z,80.71
2018-11-02T22:50:20.838Z,81.08
2018-11-02T22:52:50.303Z,80.77
2018-11-02T22:55:19.744Z,80.65
2018-11-02T22:57:49.178Z,80.51
2018-11-02T23:00:19.582Z,80.74
2018-11-02T23:02:49.718Z,80.24
2018-11-02T23:05:19.299Z,79.96
2018-11-02T23:07:48.809Z,80.36
2018-11-02T23:10:18.214Z,79.96
2018-11-02T23:12:47.851Z,80.75
2018-11-02T23:15:17.424Z,79.91
2018-11-02T23:17:46.859Z,79.89
2018-11-02T23:20:16.341Z,80.00
2018-11-02T23:22:45.829Z,79.44
2018-11-02T23:25:15.283Z,79.92
2018-11-02T23:27:45.565Z,79.92
2018-11-02T23:30:15.126Z,79.84
2018-11-02T23:32:44.577Z,79.83
2018-11-02T23:35:14.766Z,79.83
2018-11-02T23:37:44.268Z,80.04
2018-11-02T23:40:14.252Z,79.90
2018-11-02T23:42:43.690Z,79.81
2018-11-02T23:45:13.179Z,79.75
2018-11-02T23:47:47.929Z,79.63
2018-11-02T23:50:17.401Z,79.95
2018-11-02T23:52:46.914Z,80.20
2018-11-02T23:55:16.421Z,79.87
2018-11-02T23:57:45.873Z,80.17
